Time;durP1;ratioP1;P1;durP2;ratioP2;P2;SDS_P1;SDS_P2;PMS_P1;PMS_P2;Temp;Humidity;BMP_temperature;BMP_pressure;BME280_temperature;BME280_humidity;BME280_pressure;Samples;Min_cycle;Max_cycle;Signal;HPM_P1;HPM_P2
2022/05/04 00:00:12;;;;;;;34.22;21.48;;;;;;;16.46;62.02;100979.69;5048663;28;20035;-84
2022/05/04 00:02:37;;;;;;;34.20;21.50;;;;;;;16.47;62.05;100976.06;5042016;28;20037;-83
2022/05/04 00:05:04;;;;;;;34.53;21.10;;;;;;;16.44;62.18;100978.97;5034248;28;20032;-83
2022/05/04 00:07:29;;;;;;;31.08;20.05;;;;;;;16.40;62.34;100964.28;5032069;28;20021;-83
2022/05/04 00:09:57;;;;;;;31.75;20.02;;;;;;;16.50;62.13;100977.63;5033005;28;20051;-84
2022/05/04 00:12:25;;;;;;;34.50;22.85;;;;;;;16.52;61.91;100976.50;5031976;28;20475;-84
2022/05/04 00:14:51;;;;;;;31.10;20.10;;;;;;;16.45;62.09;100981.50;5031672;28;20125;-83
2022/05/04 00:17:17;;;;;;;29.38;19.38;;;;;;;16.38;62.52;100975.03;5032929;28;20096;-83
2022/05/04 00:19:42;;;;;;;29.58;19.63;;;;;;;16.39;62.18;100973.19;5049637;28;20025;-83
2022/05/04 00:22:08;;;;;;;29.35;18.85;;;;;;;16.38;62.36;100977.66;5034003;28;20467;-84
2022/05/04 00:24:34;;;;;;;27.52;18.65;;;;;;;16.34;62.30;100988.66;5031546;28;20037;-84
2022/05/04 00:26:59;;;;;;;31.20;20.17;;;;;;;16.29;62.48;100989.06;5031734;28;20065;-83
2022/05/04 00:29:25;;;;;;;32.50;19.15;;;;;;;16.32;62.24;100987.94;5044653;28;20086;-84
2022/05/04 00:31:50;;;;;;;30.35;19.65;;;;;;;16.27;62.32;100993.59;5048808;28;20025;-84
2022/05/04 00:34:16;;;;;;;26.83;18.30;;;;;;;16.28;62.28;100983.88;5048475;28;20116;-84
2022/05/04 00:36:41;;;;;;;25.15;17.30;;;;;;;16.31;62.17;100984.47;5051757;28;20036;-84
2022/05/04 00:39:06;;;;;;;22.88;15.20;;;;;;;15.99;63.08;100973.84;5048294;28;20041;-84
2022/05/04 00:41:32;;;;;;;26.63;17.15;;;;;;;16.14;62.85;100974.41;5051661;28;20033;-84
2022/05/04 00:43:57;;;;;;;23.30;15.65;;;;;;;16.13;62.57;100973.56;5039828;28;20021;-84
2022/05/04 00:46:23;;;;;;;26.65;17.00;;;;;;;16.24;62.08;100962.91;5031741;28;20057;-83
2022/05/04 00:48:48;;;;;;;21.50;14.70;;;;;;;16.22;62.00;100969.31;5039161;28;20091;-84
2022/05/04 00:51:14;;;;;;;21.15;14.18;;;;;;;16.24;62.04;100973.50;5051592;28;20455;-84
2022/05/04 00:53:42;;;;;;;20.60;14.18;;;;;;;16.26;61.89;100966.28;5032966;28;20056;-84
2022/05/04 00:56:08;;;;;;;21.27;14.15;;;;;;;16.16;61.89;100960.06;5032496;28;20048;-83
2022/05/04 01:01:24;;;;;;;28.88;16.83;;;;;;;16.11;61.81;100961.41;5032985;28;20043;-84
2022/05/04 01:03:50;;;;;;;22.50;14.95;;;;;;;16.01;61.93;100956.03;5036274;28;20036;-84
2022/05/04 01:06:16;;;;;;;22.88;14.32;;;;;;;15.95;61.87;100952.06;5036135;28;20029;-83
2022/05/04 01:08:41;;;;;;;24.00;15.00;;;;;;;16.09;62.01;100950.09;5035364;28;20391;-83
2022/05/04 01:11:06;;;;;;;21.67;14.50;;;;;;;16.06;61.98;100948.56;5033969;28;20103;-83
2022/05/04 01:13:32;;;;;;;21.73;14.45;;;;;;;16.10;61.86;100949.97;5049901;28;20067;-84
2022/05/04 01:15:57;;;;;;;21.10;15.02;;;;;;;16.12;61.67;100949.88;5047178;28;20021;-84
2022/05/04 01:18:22;;;;;;;22.70;13.52;;;;;;;16.07;61.91;100952.88;5036500;28;20426;-84
2022/05/04 01:20:48;;;;;;;26.00;15.30;;;;;;;16.02;62.02;100955.06;5034904;28;20025;-84
2022/05/04 01:23:13;;;;;;;21.40;14.38;;;;;;;15.97;62.28;100938.72;5036019;28;20410;-83
2022/05/04 01:25:39;;;;;;;22.73;12.82;;;;;;;15.98;62.20;100935.94;5049994;28;20025;-84
2022/05/04 01:28:05;;;;;;;19.55;12.75;;;;;;;16.04;62.15;100947.84;5052315;28;20033;-83
2022/05/04 01:30:32;;;;;;;19.73;13.45;;;;;;;15.96;62.20;100945.00;5034681;28;20025;-83
2022/05/04 01:32:59;;;;;;;21.45;13.50;;;;;;;15.92;62.00;100940.91;5034329;28;20022;-84
2022/05/04 01:35:25;;;;;;;20.65;13.68;;;;;;;15.82;62.21;100943.47;5035393;28;20025;-83
2022/05/04 01:37:50;;;;;;;20.55;14.50;;;;;;;15.84;62.11;100930.94;5046417;28;20446;-84
2022/05/04 01:40:16;;;;;;;25.55;15.50;;;;;;;15.70;62.13;100937.34;5036433;28;20033;-83
2022/05/04 01:42:41;;;;;;;21.38;14.52;;;;;;;15.70;62.28;100926.75;5034353;28;20087;-83
2022/05/04 01:45:09;;;;;;;22.00;15.38;;;;;;;15.59;62.47;100932.88;5034807;28;20029;-82
2022/05/04 01:47:34;;;;;;;21.58;13.23;;;;;;;15.64;62.42;100933.38;5046155;28;20022;-81
2022/05/04 01:50:00;;;;;;;17.90;12.60;;;;;;;15.64;62.12;100935.19;5033083;28;20021;-84
2022/05/04 01:52:25;;;;;;;25.83;14.93;;;;;;;15.67;61.91;100942.88;5042311;28;20076;-83
2022/05/04 01:54:51;;;;;;;20.35;13.32;;;;;;;15.55;62.64;100938.56;5053966;28;20036;-82
2022/05/04 01:57:16;;;;;;;20.13;13.40;;;;;;;15.60;62.10;100937.22;5042390;28;20029;-83
2022/05/04 01:59:41;;;;;;;20.60;12.80;;;;;;;15.53;62.57;100946.63;5035470;28;20490;-83
2022/05/04 02:02:07;;;;;;;19.05;13.40;;;;;;;15.47;63.07;100952.41;5035149;28;20472;-83
2022/05/04 02:04:34;;;;;;;18.20;12.95;;;;;;;15.51;63.06;100937.97;5041902;28;20426;-83
2022/05/04 02:07:00;;;;;;;19.25;12.40;;;;;;;15.57;63.25;100944.56;5036590;28;20490;-83
2022/05/04 02:09:27;;;;;;;21.33;14.95;;;;;;;15.34;64.05;100941.13;5041575;28;20057;-83
2022/05/04 02:11:52;;;;;;;22.85;16.33;;;;;;;15.33;64.49;100939.44;5034769;28;20025;-83
2022/05/04 02:14:19;;;;;;;21.40;14.52;;;;;;;15.40;64.38;100936.19;5033200;28;20037;-83
2022/05/04 02:16:45;;;;;;;22.77;17.73;;;;;;;15.22;65.70;100937.63;5053209;28;20033;-83
2022/05/04 02:19:10;;;;;;;23.58;17.80;;;;;;;15.24;65.40;100933.06;5052008;28;20086;-83
2022/05/04 02:21:36;;;;;;;24.88;18.45;;;;;;;15.32;65.46;100937.75;5052177;28;20104;-83
2022/05/04 02:24:01;;;;;;;24.88;18.95;;;;;;;15.40;64.94;100936.19;5048289;28;20029;-83
2022/05/04 02:26:26;;;;;;;37.65;22.48;;;;;;;15.19;65.33;100932.59;5051824;28;20459;-83
2022/05/04 02:28:52;;;;;;;32.33;20.80;;;;;;;15.18;65.79;100939.69;5036790;28;20029;-83
2022/05/04 02:31:17;;;;;;;28.65;20.27;;;;;;;15.18;65.68;100928.25;5033986;28;20052;-83
2022/05/04 02:33:44;;;;;;;30.10;21.02;;;;;;;15.13;65.71;100936.56;5035967;28;20116;-83
2022/05/04 02:38:54;;;;;;;29.58;20.83;;;;;;;15.12;65.73;100928.75;5037522;28;20032;-83
2022/05/04 02:41:19;;;;;;;27.92;20.95;;;;;;;15.08;65.95;100921.03;5033372;28;20030;-83
2022/05/04 02:43:44;;;;;;;35.53;22.08;;;;;;;14.97;66.92;100934.28;5035711;28;20021;-83
2022/05/04 02:46:15;;;;;;;33.05;23.83;;;;;;;14.97;67.29;100921.06;5034468;28;20064;-83
2022/05/04 02:48:40;;;;;;;35.20;24.38;;;;;;;14.85;67.43;100924.69;5034714;28;20037;-83
2022/05/04 02:51:06;;;;;;;34.55;22.98;;;;;;;15.06;66.81;100922.13;5032986;28;20476;-83
2022/05/04 02:53:31;;;;;;;36.03;23.70;;;;;;;14.84;67.44;100928.25;5034085;28;20049;-83
2022/05/04 02:55:56;;;;;;;31.45;22.67;;;;;;;15.02;66.77;100934.75;5050513;28;20033;-83
2022/05/04 02:58:22;;;;;;;37.90;23.77;;;;;;;14.92;67.24;100925.84;5052784;28;20029;-83
2022/05/04 03:00:47;;;;;;;29.58;21.77;;;;;;;15.10;66.22;100928.88;5049129;28;20032;-83
2022/05/04 03:03:13;;;;;;;32.53;23.02;;;;;;;14.94;66.91;100931.88;5049658;28;20059;-83
2022/05/04 03:05:38;;;;;;;36.65;24.08;;;;;;;15.10;66.60;100923.56;5052574;28;20024;-83
2022/05/04 03:08:04;;;;;;;33.88;23.25;;;;;;;15.15;66.69;100928.53;5052643;28;20107;-83
2022/05/04 03:10:29;;;;;;;32.05;22.88;;;;;;;15.20;66.00;100921.88;5051712;28;20029;-84
2022/05/04 03:12:54;;;;;;;35.28;22.88;;;;;;;15.12;66.41;100928.75;5042480;28;20087;-83
2022/05/04 03:15:20;;;;;;;29.55;21.60;;;;;;;15.23;66.18;100923.47;5032615;28;20053;-83
2022/05/04 03:17:45;;;;;;;27.77;20.20;;;;;;;15.23;66.26;100923.47;5032318;28;20033;-83
2022/05/04 03:20:12;;;;;;;29.80;19.92;;;;;;;15.13;66.10;100918.06;5033644;28;20021;-81
2022/05/04 03:22:38;;;;;;;30.55;21.35;;;;;;;15.23;66.05;100913.72;5032715;28;20021;-84
2022/05/04 03:25:08;;;;;;;29.42;20.70;;;;;;;15.38;65.83;100916.94;5033547;28;20045;-83
2022/05/04 03:27:35;;;;;;;29.52;21.02;;;;;;;15.02;66.92;100915.41;5051382;28;20025;-83
2022/05/04 03:30:01;;;;;;;31.50;22.42;;;;;;;15.04;66.01;100919.59;5033813;28;20086;-82
2022/05/04 03:32:26;;;;;;;27.75;19.67;;;;;;;15.04;66.31;100924.91;5033736;28;20112;-82
2022/05/04 03:34:51;;;;;;;30.15;20.48;;;;;;;14.92;66.79;100915.28;5034298;28;20033;-83
2022/05/04 03:37:17;;;;;;;28.65;19.73;;;;;;;15.06;65.87;100920.31;5032377;28;20021;-82
2022/05/04 03:39:42;;;;;;;27.38;21.00;;;;;;;14.90;66.92;100917.22;5044352;28;20482;-82
2022/05/04 03:42:08;;;;;;;27.92;19.80;;;;;;;15.04;66.45;100913.47;5050722;28;20032;-83
2022/05/04 03:44:33;;;;;;;27.67;20.33;;;;;;;15.11;66.36;100905.94;5048658;28;20108;-82
2022/05/04 03:46:59;;;;;;;27.88;19.73;;;;;;;15.15;65.96;100900.25;5051870;28;20044;-82
2022/05/04 03:49:24;;;;;;;28.35;19.52;;;;;;;15.12;65.99;100903.13;5045555;28;20387;-83
2022/05/04 03:51:50;;;;;;;23.75;17.40;;;;;;;14.98;66.23;100903.38;5031772;28;20510;-82
2022/05/04 03:54:16;;;;;;;23.70;15.88;;;;;;;15.22;65.93;100900.59;5032881;28;20086;-83
2022/05/04 03:56:41;;;;;;;22.65;16.33;;;;;;;15.28;65.31;100897.47;5032060;28;20112;-82
2022/05/04 03:59:09;;;;;;;21.08;14.50;;;;;;;15.15;65.84;100904.72;5036071;28;20044;-82
2022/05/04 04:01:35;;;;;;;18.90;13.35;;;;;;;15.23;65.40;100905.78;5045518;28;20078;-81
2022/05/04 04:04:00;;;;;;;21.23;13.48;;;;;;;15.31;65.56;100897.22;5038394;28;20033;-82
2022/05/04 04:06:26;;;;;;;19.58;14.40;;;;;;;15.20;65.13;100887.50;5051703;28;20033;-82
2022/05/04 04:08:52;;;;;;;20.90;13.23;;;;;;;15.17;64.98;100897.50;5042656;28;20151;-82
2022/05/04 04:11:19;;;;;;;15.05;11.57;;;;;;;15.08;65.56;100896.41;5032936;28;20033;-82
2022/05/04 04:13:45;;;;;;;14.73;10.82;;;;;;;15.00;66.33;100901.47;5032271;28;20041;-82
2022/05/04 04:16:10;;;;;;;15.40;10.48;;;;;;;15.09;65.58;100898.09;5040795;28;20545;-82
2022/05/04 04:18:36;;;;;;;13.07;10.30;;;;;;;15.14;65.51;100895.91;5048477;28;20025;-82
2022/05/04 04:23:45;;;;;;;15.80;11.20;;;;;;;15.16;65.66;100896.63;5040103;28;20128;-84
2022/05/04 04:26:11;;;;;;;11.93;9.93;;;;;;;15.34;64.95;100893.50;5031619;28;20521;-82
2022/05/04 04:28:38;;;;;;;13.75;10.27;;;;;;;15.09;65.99;100895.47;5031870;28;20096;-82
2022/05/04 04:31:04;;;;;;;14.52;10.32;;;;;;;15.01;66.01;100901.34;5031693;28;20021;-82
2022/05/04 04:33:30;;;;;;;14.88;10.00;;;;;;;15.20;65.46;100894.59;5041367;28;20059;-84
2022/05/04 04:35:57;;;;;;;13.88;10.10;;;;;;;15.13;65.52;100896.06;5048097;28;20029;-84
2022/05/04 04:38:22;;;;;;;13.10;9.15;;;;;;;15.14;65.61;100893.28;5048936;28;20028;-82
2022/05/04 04:40:48;;;;;;;12.65;9.18;;;;;;;15.24;65.21;100896.88;5035366;28;20100;-82
2022/05/04 04:43:15;;;;;;;13.00;8.80;;;;;;;15.30;65.04;100892.06;5037331;28;20094;-83
2022/05/04 04:45:43;;;;;;;12.10;9.30;;;;;;;15.25;65.47;100895.09;5050593;28;20461;-82
2022/05/04 04:48:08;;;;;;;10.90;9.32;;;;;;;15.36;65.17;100896.84;5042784;28;20040;-82
2022/05/04 04:50:34;;;;;;;13.75;9.65;;;;;;;15.35;65.33;100896.03;5056528;28;20083;-84
2022/05/04 04:52:59;;;;;;;11.20;9.23;;;;;;;15.40;64.95;100899.16;5053315;28;20111;-82
2022/05/04 04:55:25;;;;;;;11.15;9.60;;;;;;;15.41;64.96;100895.53;5059571;28;20091;-84
2022/05/04 04:57:50;;;;;;;13.48;10.23;;;;;;;15.35;65.27;100890.72;5058242;28;20052;-83
2022/05/04 05:00:16;;;;;;;15.35;10.15;;;;;;;15.35;65.61;100893.38;5038893;28;20034;-83
2022/05/04 05:02:41;;;;;;;13.82;10.13;;;;;;;15.39;65.23;100892.16;5050972;28;20727;-83
2022/05/04 05:05:07;;;;;;;13.18;9.80;;;;;;;15.57;65.01;100895.13;5046623;28;20108;-83
2022/05/04 05:07:33;;;;;;;13.27;9.85;;;;;;;15.40;65.04;100893.84;5054795;28;20139;-83
2022/05/04 05:09:58;;;;;;;11.23;9.52;;;;;;;15.54;64.34;100894.53;5049500;28;20522;-83
2022/05/04 05:12:24;;;;;;;13.43;9.80;;;;;;;15.57;64.72;100894.28;5055552;28;20017;-83
2022/05/04 05:17:35;;;;;;;12.27;9.40;;;;;;;15.57;64.76;100896.94;5041955;28;20037;-83
2022/05/04 05:20:01;;;;;;;11.35;8.98;;;;;;;15.44;64.60;100899.72;5053324;28;20520;-83
2022/05/04 05:22:27;;;;;;;12.23;9.27;;;;;;;15.50;64.71;100899.25;5051161;28;20085;-83
2022/05/04 05:24:52;;;;;;;10.80;8.30;;;;;;;15.59;64.69;100897.66;5046662;28;20033;-82
2022/05/04 05:27:17;;;;;;;9.52;7.40;;;;;;;15.72;64.51;100903.63;5040084;28;20043;-83
2022/05/04 05:29:43;;;;;;;10.60;8.27;;;;;;;15.71;64.33;100917.81;5053801;28;20475;-82
2022/05/04 05:32:08;;;;;;;12.50;7.90;;;;;;;15.73;64.34;100902.69;5053208;28;20025;-81
2022/05/04 05:34:34;;;;;;;10.98;6.65;;;;;;;15.86;63.72;100899.88;5045833;28;20029;-82
2022/05/04 05:37:01;;;;;;;8.38;6.57;;;;;;;15.74;64.26;100906.16;5036611;28;20052;-82
2022/05/04 05:39:27;;;;;;;9.38;7.47;;;;;;;15.81;64.08;100913.47;5047266;28;20072;-83
2022/05/04 05:41:52;;;;;;;9.00;6.53;;;;;;;15.88;63.96;100907.69;5034248;28;20112;-83
2022/05/04 05:44:18;;;;;;;7.65;6.05;;;;;;;15.92;63.88;100906.50;5033899;28;20033;-83
2022/05/04 05:46:43;;;;;;;8.13;6.70;;;;;;;15.79;64.17;100912.78;5043432;28;20036;-83
2022/05/04 05:49:08;;;;;;;10.07;6.72;;;;;;;15.78;64.41;100903.16;5039781;28;20028;-83
2022/05/04 05:51:34;;;;;;;7.47;6.50;;;;;;;15.92;63.88;100903.84;5034311;28;20088;-83
2022/05/04 05:53:59;;;;;;;10.82;7.00;;;;;;;15.94;63.58;100904.56;5035370;28;20387;-81
2022/05/04 05:56:24;;;;;;;11.68;6.93;;;;;;;15.86;63.82;100910.47;5044394;28;20029;-82
2022/05/04 05:58:50;;;;;;;6.80;6.10;;;;;;;16.02;63.52;100910.06;5053257;28;20383;-82
2022/05/04 06:01:15;;;;;;;7.63;6.75;;;;;;;15.96;63.55;100911.41;5053031;28;20029;-82
2022/05/04 06:03:40;;;;;;;7.65;6.03;;;;;;;16.12;63.29;100913.59;5050678;28;20041;-82
2022/05/04 06:06:06;;;;;;;8.55;6.88;;;;;;;16.19;63.00;100913.94;5045333;28;20027;-82
2022/05/04 06:08:31;;;;;;;9.07;6.35;;;;;;;16.19;63.30;100912.13;5047402;28;20036;-82
2022/05/04 06:10:56;;;;;;;6.50;5.72;;;;;;;16.15;63.37;100916.00;5037210;28;20478;-81
2022/05/04 06:13:22;;;;;;;9.55;6.43;;;;;;;16.19;62.84;100912.13;5033677;28;20088;-82
2022/05/04 06:15:47;;;;;;;6.90;6.20;;;;;;;16.41;62.53;100910.31;5032819;28;20030;-82
2022/05/04 06:18:13;;;;;;;9.13;6.15;;;;;;;16.34;62.54;100914.47;5034269;28;20022;-82
2022/05/04 06:20:38;;;;;;;8.50;6.45;;;;;;;16.39;62.39;100913.09;5033933;28;20109;-82
2022/05/04 06:23:04;;;;;;;7.95;6.25;;;;;;;16.48;62.55;100908.81;5033973;28;20033;-82
2022/05/04 06:25:30;;;;;;;8.75;6.50;;;;;;;16.57;62.30;100913.34;5033662;28;20034;-82
2022/05/04 06:27:55;;;;;;;7.80;6.30;;;;;;;16.71;61.68;100916.66;5033726;28;20057;-82
2022/05/04 06:35:48;;;;;;;10.57;6.78;;;;;;;16.62;61.62;100913.78;5033503;28;20044;-82
2022/05/04 06:38:14;;;;;;;7.45;6.65;;;;;;;16.66;61.29;100925.81;5034667;28;20116;-83
2022/05/04 06:40:39;;;;;;;10.18;6.97;;;;;;;16.68;61.23;100914.25;5054606;28;20158;-82
2022/05/04 06:43:05;;;;;;;10.18;6.57;;;;;;;16.92;61.12;100909.50;5073299;28;20074;-82
2022/05/04 06:45:30;;;;;;;9.50;6.85;;;;;;;16.94;60.94;100915.53;5058365;28;20049;-82
2022/05/04 06:47:55;;;;;;;6.60;5.90;;;;;;;17.20;60.60;100917.69;5033366;28;20036;-83
2022/05/04 06:50:21;;;;;;;7.68;6.65;;;;;;;17.35;60.16;100911.03;5039230;28;20043;-82
2022/05/04 06:52:46;;;;;;;8.27;6.47;;;;;;;17.53;59.71;100908.56;5050058;28;20455;-82
2022/05/04 06:55:12;;;;;;;7.85;6.75;;;;;;;17.56;59.43;100920.75;5036240;28;20438;-82
2022/05/04 06:57:37;;;;;;;7.18;6.47;;;;;;;17.57;59.29;100909.97;5053136;28;20060;-82
2022/05/04 07:00:04;;;;;;;8.43;6.10;;;;;;;17.66;59.56;100913.63;5035827;28;20534;-82
2022/05/04 07:02:30;;;;;;;8.30;6.82;;;;;;;17.59;58.95;100915.13;5044432;28;20487;-82
2022/05/04 07:04:56;;;;;;;9.38;6.45;;;;;;;17.48;59.91;100909.97;5052169;28;20032;-82
2022/05/04 07:07:21;;;;;;;8.82;5.47;;;;;;;17.81;58.92;100904.28;5051947;28;20025;-82
2022/05/04 07:09:46;;;;;;;7.45;5.95;;;;;;;17.44;59.83;100912.06;5043979;28;20080;-82
2022/05/04 07:12:12;;;;;;;11.10;5.93;;;;;;;17.28;59.84;100920.53;5032508;28;20022;-82
2022/05/04 07:14:37;;;;;;;7.88;6.05;;;;;;;17.38;59.97;100925.88;5035049;28;20998;-82
2022/05/04 07:17:02;;;;;;;7.50;5.63;;;;;;;17.21;60.52;100920.22;5052492;28;20025;-82
2022/05/04 07:19:28;;;;;;;8.23;6.72;;;;;;;17.54;59.78;100925.34;5051387;28;20033;-82
2022/05/04 07:21:53;;;;;;;8.77;5.75;;;;;;;17.64;59.58;100928.84;5049942;28;20450;-82
2022/05/04 07:24:19;;;;;;;7.10;5.55;;;;;;;17.47;60.24;100929.53;5039390;28;20061;-82
2022/05/04 07:26:44;;;;;;;8.23;5.63;;;;;;;17.68;59.63;100926.78;5041663;28;20055;-82
2022/05/04 07:29:09;;;;;;;7.80;5.10;;;;;;;17.86;58.84;100919.81;5055741;28;20033;-81
2022/05/04 07:31:36;;;;;;;5.95;4.88;;;;;;;18.07;58.74;100922.34;5045421;28;20029;-82
2022/05/04 07:34:01;;;;;;;4.90;4.40;;;;;;;18.19;59.06;100918.56;5033313;28;20167;-82
2022/05/04 07:36:27;;;;;;;7.03;5.10;;;;;;;18.27;58.05;100914.38;5032775;28;20021;-82
2022/05/04 07:38:52;;;;;;;6.68;4.63;;;;;;;18.12;58.58;100917.44;5032989;28;20021;-82
2022/05/04 07:44:01;;;;;;;5.60;4.80;;;;;;;18.34;58.04;100928.75;5031976;28;20140;-82
2022/05/04 07:46:29;;;;;;;7.38;4.82;;;;;;;18.37;57.72;100929.31;5032317;28;20527;-82
2022/05/04 07:48:55;;;;;;;4.90;4.40;;;;;;;18.62;57.35;100927.00;5030806;28;20373;-82
2022/05/04 07:51:21;;;;;;;5.82;4.78;;;;;;;18.24;57.40;100934.91;5039336;28;20074;-82
2022/05/04 07:53:46;;;;;;;6.03;4.82;;;;;;;18.25;57.50;100935.78;5051783;28;20029;-81
2022/05/04 07:56:12;;;;;;;8.15;5.18;;;;;;;18.00;58.23;100932.69;5052111;28;20475;-81
2022/05/04 07:58:37;;;;;;;7.35;5.45;;;;;;;17.73;58.85;100937.81;5052160;28;20025;-82
2022/05/04 08:06:30;;;;;;;7.63;5.25;;;;;;;17.88;58.66;100932.97;5039438;28;20044;-82
2022/05/04 08:08:56;;;;;;;4.55;3.95;;;;;;;18.09;58.22;100941.66;5032026;28;20029;-82
2022/05/04 08:11:21;;;;;;;7.22;5.35;;;;;;;18.14;58.17;100947.38;5031779;28;20041;-82
2022/05/04 08:13:46;;;;;;;6.18;4.80;;;;;;;18.18;58.07;100945.28;5034941;28;20025;-81
2022/05/04 08:16:13;;;;;;;5.30;4.80;;;;;;;17.89;58.14;100942.59;5031950;28;20022;-82
2022/05/04 08:18:41;;;;;;;6.40;5.22;;;;;;;17.66;59.00;100950.81;5031943;28;20083;-81
2022/05/04 08:21:08;;;;;;;6.40;4.78;;;;;;;17.64;59.42;100945.63;5031876;28;20021;-82
2022/05/04 08:23:33;;;;;;;8.93;4.78;;;;;;;17.82;58.76;100940.47;5031630;28;20029;-82
2022/05/04 08:25:58;;;;;;;5.43;4.93;;;;;;;17.71;58.67;100943.25;5031741;28;20044;-81
2022/05/04 08:28:24;;;;;;;5.18;4.15;;;;;;;17.86;58.36;100934.94;5039731;28;20029;-82
2022/05/04 08:30:49;;;;;;;4.47;4.00;;;;;;;17.76;58.33;100941.03;5051584;28;20021;-81
2022/05/04 08:33:15;;;;;;;4.93;4.10;;;;;;;17.79;58.01;100940.75;5051546;28;20461;-81
2022/05/04 08:35:41;;;;;;;6.40;4.15;;;;;;;17.62;58.78;100946.75;5051923;28;20475;-81
2022/05/04 08:38:06;;;;;;;4.93;4.05;;;;;;;17.69;58.49;100945.19;5050203;28;20110;-81
2022/05/04 08:40:32;;;;;;;4.22;3.83;;;;;;;17.62;58.58;100944.91;5051988;28;20455;-82
2022/05/04 08:43:00;;;;;;;5.45;4.22;;;;;;;17.30;59.48;100947.78;5049618;28;20480;-81
2022/05/04 08:45:25;;;;;;;5.43;4.13;;;;;;;17.23;59.97;100946.63;5051423;28;20060;-81
2022/05/04 08:47:51;;;;;;;4.70;4.22;;;;;;;17.38;59.54;100952.41;5051544;28;20060;-81
2022/05/04 08:50:17;;;;;;;6.30;4.10;;;;;;;17.54;58.96;100946.59;5051350;28;20025;-82
2022/05/04 08:52:53;;;;;;;5.57;4.57;;;;;;;17.51;59.15;100946.84;5051259;28;20439;-82
2022/05/04 08:55:20;;;;;;;6.03;3.97;;;;;;;17.73;59.29;100946.63;5050015;28;20380;-82
2022/05/04 08:57:46;;;;;;;4.13;3.70;;;;;;;17.49;59.42;100954.13;5042795;28;20033;-82
2022/05/04 09:00:12;;;;;;;5.05;3.95;;;;;;;17.75;59.10;100944.69;5032295;28;20479;-82
2022/05/04 09:02:38;;;;;;;5.47;4.40;;;;;;;17.80;58.55;100947.75;5031108;28;20033;-82
2022/05/04 09:05:24;;;;;;;4.53;3.50;;;;;;;17.94;58.24;100949.19;5031287;28;20121;-81
2022/05/04 09:07:54;;;;;;;4.65;4.03;;;;;;;18.08;58.13;100939.13;5030175;28;20018;-81
2022/05/04 09:10:32;;;;;;;4.32;3.33;;;;;;;18.45;56.71;100949.88;5031475;28;20566;-81
2022/05/04 09:12:59;;;;;;;6.55;3.85;;;;;;;18.47;56.95;100950.56;5033626;28;20623;-82
2022/05/04 09:15:30;;;;;;;4.25;3.67;;;;;;;18.49;57.08;100953.91;5050910;28;20037;-82
2022/05/04 09:17:57;;;;;;;7.03;3.85;;;;;;;18.58;56.62;100954.88;5051059;28;20414;-82
2022/05/04 09:20:45;;;;;;;4.53;3.85;;;;;;;18.59;56.62;100946.75;5051511;28;20032;-81
2022/05/04 09:23:32;;;;;;;5.32;3.35;;;;;;;18.99;55.62;100948.34;5050068;28;20487;-82
2022/05/04 09:26:00;;;;;;;5.82;3.83;;;;;;;18.73;56.25;100939.31;5053645;28;20471;-81
2022/05/04 09:28:27;;;;;;;5.35;3.58;;;;;;;18.98;55.50;100941.38;5045266;28;20357;-81
2022/05/04 09:31:14;;;;;;;5.55;3.83;;;;;;;19.21;55.78;100948.97;5034738;28;20072;-82
2022/05/04 09:33:40;;;;;;;4.65;3.05;;;;;;;19.63;54.78;100953.81;5033402;28;20036;-81
2022/05/04 09:36:06;;;;;;;4.05;3.28;;;;;;;20.27;53.89;100937.75;5034889;28;20464;-81
2022/05/04 09:46:53;;;;;;;3.15;2.60;;;;;;;22.09;48.79;100933.06;5054499;28;20112;-82
2022/05/04 09:49:23;;;;;;;3.08;2.55;;;;;;;22.24;48.52;100942.13;5053249;28;20107;-82
2022/05/04 09:51:50;;;;;;;3.67;2.45;;;;;;;21.79;48.81;100936.19;5054158;28;20040;-82
2022/05/04 09:54:27;;;;;;;3.67;2.08;;;;;;;22.01;48.03;100931.22;5054271;28;20025;-82
2022/05/04 09:56:58;;;;;;;4.57;2.53;;;;;;;22.05;48.38;100924.53;5054457;28;20074;-82
2022/05/04 09:59:26;;;;;;;5.70;2.25;;;;;;;22.61;47.29;100922.03;5034146;28;20502;-82
2022/05/04 10:01:53;;;;;;;3.05;1.95;;;;;;;23.20;46.10;100931.56;5034161;28;20044;-82
2022/05/04 10:04:29;;;;;;;3.22;1.92;;;;;;;22.39;46.06;100939.59;5034250;28;20026;-82
2022/05/04 10:06:54;;;;;;;1.23;1.13;;;;;;;23.56;44.46;100927.34;5034106;28;20543;-82
2022/05/04 10:09:22;;;;;;;1.52;1.17;;;;;;;25.30;41.29;100930.16;5034177;28;20104;-82
2022/05/04 10:11:56;;;;;;;3.22;1.08;;;;;;;25.64;40.22;100931.38;5034660;28;20057;-82
2022/05/04 10:14:22;;;;;;;3.00;1.05;;;;;;;25.46;40.95;100923.72;5038557;28;20032;-82
2022/05/04 10:17:17;;;;;;;3.00;0.70;;;;;;;24.18;42.91;100930.97;5053927;28;20028;-82
2022/05/04 10:19:50;;;;;;;2.42;0.80;;;;;;;24.41;42.14;100928.25;5053516;28;20036;-82
2022/05/04 10:22:21;;;;;;;1.77;1.02;;;;;;;24.37;42.76;100924.25;5051711;28;20100;-82
2022/05/04 10:24:46;;;;;;;1.05;0.82;;;;;;;23.76;43.33;100919.69;5032589;28;20018;-82
2022/05/04 10:27:21;;;;;;;2.78;0.90;;;;;;;23.61;43.90;100918.78;5033743;28;20036;-82
2022/05/04 10:32:44;;;;;;;2.63;1.05;;;;;;;22.74;45.87;100918.81;5033653;28;20071;-82
2022/05/04 10:35:38;;;;;;;4.65;1.35;;;;;;;22.00;47.11;100924.22;5038204;28;20442;-82
2022/05/04 10:38:14;;;;;;;3.35;0.90;;;;;;;22.62;45.62;100922.84;5040598;28;20103;-83
2022/05/04 10:40:44;;;;;;;2.45;0.90;;;;;;;22.54;45.65;100921.84;5040413;28;20386;-82
2022/05/04 10:43:16;;;;;;;2.05;0.70;;;;;;;22.52;45.29;100918.50;5053436;28;20025;-82
2022/05/04 10:45:43;;;;;;;0.77;0.65;;;;;;;23.86;43.46;100919.47;5037674;28;20034;-82
2022/05/04 10:48:18;;;;;;;1.25;0.70;;;;;;;23.89;43.08;100924.47;5053053;28;20070;-83
2022/05/04 10:50:51;;;;;;;3.70;0.60;;;;;;;22.91;44.37;100933.00;5056073;28;20395;-83
2022/05/04 10:53:25;;;;;;;0.98;0.50;;;;;;;23.13;44.03;100920.72;5038205;28;20029;-82
2022/05/04 10:56:00;;;;;;;7.40;0.90;;;;;;;23.39;43.16;100927.63;5033262;28;20029;-82
2022/05/04 10:58:35;;;;;;;1.38;0.43;;;;;;;24.00;41.98;100919.72;5033075;28;20037;-82
2022/05/04 11:01:11;;;;;;;2.13;0.70;;;;;;;24.12;43.01;100929.84;5034003;28;20064;-82
2022/05/04 11:03:48;;;;;;;0.63;0.45;;;;;;;25.21;40.49;100926.69;5037300;28;20561;-82
2022/05/04 11:06:24;;;;;;;1.75;0.50;;;;;;;25.04;41.02;100931.47;5035896;28;20044;-82
2022/05/04 11:08:49;;;;;;;0.40;0.30;;;;;;;27.02;38.23;100929.19;5046948;28;20098;-82
2022/05/04 11:11:15;;;;;;;1.38;0.32;;;;;;;25.97;38.90;100939.81;5033052;28;20101;-82
2022/05/04 11:13:43;;;;;;;0.82;0.50;;;;;;;26.87;36.46;100932.00;5043982;28;20479;-82
2022/05/04 11:16:09;;;;;;;2.03;0.65;;;;;;;25.22;39.58;100931.09;5031290;28;20400;-82
2022/05/04 11:18:35;;;;;;;1.67;0.60;;;;;;;24.62;40.23;100940.97;5051809;28;20029;-82
2022/05/04 11:21:05;;;;;;;1.38;0.52;;;;;;;24.67;40.74;100941.28;5052546;28;20036;-82
2022/05/04 11:23:31;;;;;;;1.67;0.40;;;;;;;25.77;38.39;100936.03;5034804;28;20123;-83
2022/05/04 11:25:56;;;;;;;3.33;0.60;;;;;;;26.04;37.75;100926.41;5031329;28;20065;-82
2022/05/04 11:28:25;;;;;;;2.17;0.43;;;;;;;26.64;36.18;100916.97;5038884;28;20528;-82
2022/05/04 11:30:54;;;;;;;3.63;0.55;;;;;;;26.80;36.81;100921.19;5045705;28;20487;-82
2022/05/04 11:33:20;;;;;;;2.45;0.60;;;;;;;25.40;37.79;100924.50;5052029;28;20063;-83
2022/05/04 11:35:55;;;;;;;1.33;0.65;;;;;;;25.07;38.96;100914.13;5046365;28;20049;-83
2022/05/04 11:38:22;;;;;;;1.23;0.77;;;;;;;24.86;39.62;100913.03;5037702;28;20410;-83
2022/05/04 11:40:48;;;;;;;1.73;0.88;;;;;;;25.90;38.67;100920.03;5032328;28;20029;-83
2022/05/04 11:43:27;;;;;;;1.10;0.80;;;;;;;24.99;39.51;100916.91;5050038;28;20023;-81
2022/05/04 11:45:54;;;;;;;2.90;1.05;;;;;;;25.47;39.00;100901.19;5046071;28;20048;-80
2022/05/04 11:48:19;;;;;;;2.75;1.15;;;;;;;26.53;37.17;100904.00;5045195;28;20029;-81
2022/05/04 11:50:46;;;;;;;3.05;0.95;;;;;;;25.71;38.17;100899.97;5042877;28;20110;-81